Time;durP1;ratioP1;P1;durP2;ratioP2;P2;SDS_P1;SDS_P2;PMS_P1;PMS_P2;Temp;Humidity;BMP_temperature;BMP_pressure;BME280_temperature;BME280_humidity;BME280_pressure;Samples;Min_cycle;Max_cycle;Signal;HPM_P1;HPM_P2
2023/11/19 00:00:36;;;;;;;15.98;12.15;;;;;;;;;;5068914;28;20090;-65
2023/11/19 00:03:02;;;;;;;14.40;12.20;;;;;;;;;;5058750;28;20053;-65
2023/11/19 00:05:28;;;;;;;13.05;11.05;;;;;;;;;;5064207;28;20048;-65
2023/11/19 00:07:55;;;;;;;13.68;11.27;;;;;;;;;;5042518;28;20049;-66
2023/11/19 00:10:21;;;;;;;13.63;11.40;;;;;;;;;;5066890;28;20410;-65
2023/11/19 00:12:48;;;;;;;14.55;11.40;;;;;;;;;;5049836;28;20055;-66
2023/11/19 00:15:17;;;;;;;16.55;11.13;;;;;;;;;;5067726;28;20044;-65
2023/11/19 00:17:46;;;;;;;15.93;11.05;;;;;;;;;;5063329;28;20564;-63
2023/11/19 00:20:16;;;;;;;15.45;11.85;;;;;;;;;;5058824;28;20056;-65
2023/11/19 00:22:43;;;;;;;16.65;11.63;;;;;;;;;;5059394;28;20136;-65
2023/11/19 00:25:12;;;;;;;12.68;10.27;;;;;;;;;;5055606;28;20080;-66
2023/11/19 00:27:39;;;;;;;13.18;9.85;;;;;;;;;;5058282;28;20572;-65
2023/11/19 00:30:06;;;;;;;15.40;9.60;;;;;;;;;;5059848;28;21126;-66
2023/11/19 00:32:32;;;;;;;14.65;9.10;;;;;;;;;;5062296;28;20040;-66
2023/11/19 00:34:59;;;;;;;12.35;9.05;;;;;;;;;;5047562;28;20489;-66
2023/11/19 00:37:26;;;;;;;17.45;8.82;;;;;;;;;;5067285;28;20455;-65
2023/11/19 00:39:52;;;;;;;12.73;8.55;;;;;;;;;;5066812;28;20048;-66
2023/11/19 00:42:19;;;;;;;15.77;8.88;;;;;;;;;;5054615;28;20063;-66
2023/11/19 00:44:45;;;;;;;12.85;7.35;;;;;;;;;;5059087;28;20055;-66
2023/11/19 00:47:14;;;;;;;12.20;7.05;;;;;;;;;;5048491;28;20139;-66
2023/11/19 00:49:42;;;;;;;14.32;7.32;;;;;;;;;;5067475;28;20063;-66
2023/11/19 00:52:09;;;;;;;16.65;7.70;;;;;;;;;;5049834;28;20025;-66
2023/11/19 00:54:35;;;;;;;11.57;7.60;;;;;;;;;;5077304;28;20048;-67
2023/11/19 00:57:01;;;;;;;15.02;8.10;;;;;;;;;;5081027;28;20382;-66
2023/11/19 00:59:28;;;;;;;13.50;6.72;;;;;;;;;;5049609;28;20081;-65
2023/11/19 01:01:56;;;;;;;18.73;6.63;;;;;;;;;;5045681;28;20136;-66
2023/11/19 01:04:24;;;;;;;12.83;6.10;;;;;;;;;;5059814;28;20102;-63
2023/11/19 01:06:50;;;;;;;12.82;5.97;;;;;;;;;;5066650;28;20060;-65
2023/11/19 01:09:17;;;;;;;20.05;6.35;;;;;;;;;;5067720;28;20118;-66
2023/11/19 01:11:43;;;;;;;16.92;7.03;;;;;;;;;;5061590;28;20059;-66
2023/11/19 01:14:09;;;;;;;18.98;6.82;;;;;;;;;;5063979;28;20075;-66
2023/11/19 01:16:36;;;;;;;21.58;6.18;;;;;;;;;;5061143;28;20052;-66
2023/11/19 01:19:04;;;;;;;16.65;5.65;;;;;;;;;;5061330;28;20081;-65
2023/11/19 01:21:43;;;;;;;18.20;5.40;;;;;;;;;;5055129;28;20131;-65
2023/11/19 01:24:12;;;;;;;20.63;5.03;;;;;;;;;;5051724;28;20047;-66
2023/11/19 01:26:38;;;;;;;17.02;5.53;;;;;;;;;;5061811;28;20058;-65
2023/11/19 01:29:05;;;;;;;18.30;5.13;;;;;;;;;;5058618;28;20049;-65
2023/11/19 01:31:33;;;;;;;17.42;5.72;;;;;;;;;;5057791;28;20135;-65
2023/11/19 01:34:00;;;;;;;17.25;4.75;;;;;;;;;;5055561;28;20049;-65
2023/11/19 01:36:26;;;;;;;21.52;4.70;;;;;;;;;;5060120;28;20560;-66
2023/11/19 01:38:53;;;;;;;14.70;4.28;;;;;;;;;;5056008;28;20424;-63
2023/11/19 01:41:19;;;;;;;17.10;4.47;;;;;;;;;;5053230;28;20041;-66
2023/11/19 01:43:47;;;;;;;20.92;5.03;;;;;;;;;;5065064;28;20056;-63
2023/11/19 01:46:14;;;;;;;18.40;4.10;;;;;;;;;;5055064;28;20142;-63
2023/11/19 01:48:42;;;;;;;19.35;4.45;;;;;;;;;;5066512;28;20048;-63
2023/11/19 01:51:09;;;;;;;25.67;4.97;;;;;;;;;;5047949;28;20049;-63
2023/11/19 01:53:36;;;;;;;21.90;4.45;;;;;;;;;;5054832;28;20402;-63
2023/11/19 01:56:04;;;;;;;19.73;4.40;;;;;;;;;;5039134;28;20057;-64
2023/11/19 01:58:30;;;;;;;22.00;4.38;;;;;;;;;;5065337;28;20580;-64
2023/11/19 02:00:57;;;;;;;19.65;4.93;;;;;;;;;;5065636;28;20512;-63
2023/11/19 02:03:25;;;;;;;20.55;4.10;;;;;;;;;;5060913;28;20091;-63
2023/11/19 02:05:53;;;;;;;;;;;;;;;;;;5042662;28;20056;-63
2023/11/19 02:08:20;;;;;;;17.63;4.47;;;;;;;;;;5046607;28;19981;-63
2023/11/19 02:10:46;;;;;;;20.27;4.30;;;;;;;;;;5057017;28;20151;-63
2023/11/19 02:13:13;;;;;;;25.65;5.60;;;;;;;;;;5047082;28;20051;-63
2023/11/19 02:15:43;;;;;;;31.27;4.60;;;;;;;;;;5066675;28;20768;-64
2023/11/19 02:18:19;;;;;;;24.20;3.88;;;;;;;;;;5065867;28;20460;-64
2023/11/19 02:20:46;;;;;;;21.48;4.00;;;;;;;;;;5051985;28;20472;-63
2023/11/19 02:23:16;;;;;;;15.85;3.80;;;;;;;;;;5042264;28;20497;-63
2023/11/19 02:25:43;;;;;;;23.00;3.97;;;;;;;;;;5049917;28;20043;-63
2023/11/19 02:28:11;;;;;;;25.90;3.75;;;;;;;;;;5046133;28;20061;-63
2023/11/19 02:30:38;;;;;;;18.25;4.45;;;;;;;;;;5056716;28;20140;-64
2023/11/19 02:33:08;;;;;;;23.60;4.53;;;;;;;;;;5065176;28;20139;-63
2023/11/19 02:35:35;;;;;;;18.00;4.00;;;;;;;;;;5051852;28;20102;-63
2023/11/19 02:38:03;;;;;;;22.85;4.25;;;;;;;;;;5045837;28;20759;-64
2023/11/19 02:40:29;;;;;;;;;;;;;;;;;;5062864;28;20051;-63
2023/11/19 02:42:56;;;;;;;21.95;3.58;;;;;;;;;;5057773;28;20011;-64
2023/11/19 02:45:23;;;;;;;34.05;5.00;;;;;;;;;;5027662;28;20099;-63
2023/11/19 02:47:49;;;;;;;22.85;3.72;;;;;;;;;;5052035;28;20060;-63
2023/11/19 02:50:16;;;;;;;23.45;4.53;;;;;;;;;;5050840;28;20057;-63
2023/11/19 02:52:43;;;;;;;26.40;4.88;;;;;;;;;;5056065;28;20504;-63
2023/11/19 02:55:12;;;;;;;29.40;5.10;;;;;;;;;;5047664;28;20475;-63
2023/11/19 02:57:48;;;;;;;30.05;4.35;;;;;;;;;;5063755;28;20049;-63
2023/11/19 03:00:18;;;;;;;25.10;3.63;;;;;;;;;;5041776;28;20053;-63
2023/11/19 03:02:46;;;;;;;27.27;3.88;;;;;;;;;;5057653;28;20051;-63
2023/11/19 03:05:14;;;;;;;23.80;3.80;;;;;;;;;;5053710;28;20053;-63
2023/11/19 03:07:42;;;;;;;24.60;3.38;;;;;;;;;;5061629;28;20071;-63
2023/11/19 03:10:12;;;;;;;26.10;3.67;;;;;;;;;;5065668;28;20053;-64
2023/11/19 03:12:39;;;;;;;31.80;4.43;;;;;;;;;;5060535;28;20535;-64
2023/11/19 03:15:05;;;;;;;23.90;4.10;;;;;;;;;;5067540;28;20573;-62
2023/11/19 03:17:32;;;;;;;27.08;4.93;;;;;;;;;;5054424;28;20424;-64
2023/11/19 03:19:58;;;;;;;41.35;6.32;;;;;;;;;;5051483;28;20124;-64
2023/11/19 03:22:24;;;;;;;27.70;4.30;;;;;;;;;;5040227;28;20049;-63
2023/11/19 03:24:51;;;;;;;33.53;4.70;;;;;;;;;;5042873;28;20056;-63
2023/11/19 03:27:17;;;;;;;31.38;4.88;;;;;;;;;;5065340;28;20040;-64
2023/11/19 03:29:44;;;;;;;25.02;5.15;;;;;;;;;;5051767;28;20091;-63
2023/11/19 03:32:12;;;;;;;39.72;5.25;;;;;;;;;;5055511;28;20130;-64
2023/11/19 03:34:39;;;;;;;29.33;4.60;;;;;;;;;;5041896;28;20103;-64
2023/11/19 03:37:06;;;;;;;29.43;4.77;;;;;;;;;;5054685;28;20106;-64
2023/11/19 03:39:32;;;;;;;33.05;5.25;;;;;;;;;;5059184;28;20295;-64
2023/11/19 03:41:59;;;;;;;40.25;5.65;;;;;;;;;;5053807;28;20059;-63
2023/11/19 03:44:27;;;;;;;30.55;4.97;;;;;;;;;;5065427;28;20052;-64
2023/11/19 03:46:53;;;;;;;34.30;5.55;;;;;;;;;;5051193;28;20052;-65
2023/11/19 03:49:19;;;;;;;40.47;6.28;;;;;;;;;;5054882;28;20052;-63
2023/11/19 03:51:46;;;;;;;34.53;5.10;;;;;;;;;;5059787;28;20044;-64
2023/11/19 03:54:13;;;;;;;30.42;5.60;;;;;;;;;;5058494;28;20402;-64
2023/11/19 03:56:39;;;;;;;37.08;4.80;;;;;;;;;;5050859;28;20051;-64
2023/11/19 03:59:05;;;;;;;33.85;5.28;;;;;;;;;;5055057;28;20123;-63
2023/11/19 04:01:32;;;;;;;30.98;4.28;;;;;;;;;;5060924;28;20056;-64
2023/11/19 04:03:59;;;;;;;29.65;4.65;;;;;;;;;;5069346;28;20587;-64
2023/11/19 04:06:25;;;;;;;40.88;6.40;;;;;;;;;;5058911;28;20557;-63
2023/11/19 04:08:52;;;;;;;39.70;4.40;;;;;;;;;;5048756;28;20143;-63
2023/11/19 04:11:18;;;;;;;32.53;5.20;;;;;;;;;;5059261;28;20044;-64
2023/11/19 04:13:44;;;;;;;36.03;7.10;;;;;;;;;;5060117;28;20041;-63
2023/11/19 04:16:11;;;;;;;34.53;4.72;;;;;;;;;;5058613;28;20093;-64
2023/11/19 04:18:37;;;;;;;29.73;4.72;;;;;;;;;;5048371;28;20117;-63
2023/11/19 04:21:06;;;;;;;37.53;5.70;;;;;;;;;;5053475;28;20095;-63
2023/11/19 04:23:32;;;;;;;;;;;;;;;;;;5057803;28;20723;-64
2023/11/19 04:25:59;;;;;;;30.83;4.30;;;;;;;;;;5064363;28;19931;-64
2023/11/19 04:28:36;;;;;;;32.85;5.07;;;;;;;;;;5060338;28;20049;-64
2023/11/19 04:31:03;;;;;;;35.03;6.13;;;;;;;;;;5055162;28;20040;-63
2023/11/19 04:33:30;;;;;;;35.28;5.70;;;;;;;;;;5061203;28;20666;-63
2023/11/19 04:35:56;;;;;;;33.90;4.40;;;;;;;;;;5057128;28;20051;-63
2023/11/19 04:38:22;;;;;;;30.70;4.55;;;;;;;;;;5054490;28;20095;-63
2023/11/19 04:40:49;;;;;;;25.02;4.10;;;;;;;;;;5058991;28;20075;-64
2023/11/19 04:43:15;;;;;;;36.00;5.07;;;;;;;;;;5058379;28;20044;-63
2023/11/19 04:45:42;;;;;;;23.65;4.38;;;;;;;;;;5059097;28;20766;-64
2023/11/19 04:48:09;;;;;;;35.17;5.88;;;;;;;;;;5061611;28;20079;-64
2023/11/19 04:50:35;;;;;;;33.20;5.13;;;;;;;;;;5069510;28;20052;-63
2023/11/19 04:53:02;;;;;;;31.80;4.30;;;;;;;;;;5054547;28;20067;-63
2023/11/19 04:55:29;;;;;;;35.30;4.73;;;;;;;;;;5048336;28;20048;-63
2023/11/19 04:57:55;;;;;;;35.08;4.80;;;;;;;;;;5061917;28;20056;-64
2023/11/19 05:00:22;;;;;;;32.88;4.90;;;;;;;;;;5042764;28;20080;-64
2023/11/19 05:02:49;;;;;;;34.30;5.07;;;;;;;;;;5066959;28;20072;-64
2023/11/19 05:05:16;;;;;;;31.58;4.75;;;;;;;;;;5062956;28;20048;-64
2023/11/19 05:07:43;;;;;;;26.83;4.40;;;;;;;;;;5059109;28;20053;-63
2023/11/19 05:10:09;;;;;;;30.52;4.75;;;;;;;;;;5044641;28;20053;-63
2023/11/19 05:12:36;;;;;;;36.65;4.68;;;;;;;;;;5046668;28;20661;-63
2023/11/19 05:15:02;;;;;;;39.80;6.68;;;;;;;;;;5068542;28;20076;-64
2023/11/19 05:17:29;;;;;;;30.48;4.95;;;;;;;;;;5074237;28;20075;-64
2023/11/19 05:19:55;;;;;;;29.00;4.53;;;;;;;;;;5056706;28;20045;-64
2023/11/19 05:22:22;;;;;;;31.42;5.47;;;;;;;;;;5055493;28;20045;-65
2023/11/19 05:24:49;;;;;;;37.63;5.15;;;;;;;;;;5065063;28;20098;-64
2023/11/19 05:27:15;;;;;;;31.63;4.80;;;;;;;;;;5068821;28;20136;-63
2023/11/19 05:29:43;;;;;;;32.95;5.15;;;;;;;;;;5062043;28;20661;-64
2023/11/19 05:32:10;;;;;;;36.65;5.22;;;;;;;;;;5056347;28;20105;-63
2023/11/19 05:34:36;;;;;;;33.38;4.97;;;;;;;;;;5067980;28;20094;-64
2023/11/19 05:37:03;;;;;;;41.97;4.70;;;;;;;;;;5057170;28;20078;-64
2023/11/19 05:39:29;;;;;;;35.60;5.43;;;;;;;;;;5050582;28;20413;-64
2023/11/19 05:41:55;;;;;;;36.20;5.38;;;;;;;;;;5043072;28;20056;-63
2023/11/19 05:44:22;;;;;;;26.48;5.72;;;;;;;;;;5061224;28;20134;-64
2023/11/19 05:46:48;;;;;;;33.05;5.63;;;;;;;;;;5055378;28;20045;-64
2023/11/19 05:49:14;;;;;;;41.58;5.70;;;;;;;;;;5061764;28;20048;-64
2023/11/19 05:51:41;;;;;;;33.40;5.40;;;;;;;;;;5039671;28;20040;-63
2023/11/19 05:54:09;;;;;;;33.80;5.10;;;;;;;;;;5049711;28;20144;-64
2023/11/19 05:56:36;;;;;;;37.72;6.40;;;;;;;;;;5047606;28;20052;-64
2023/11/19 05:59:14;;;;;;;30.90;4.72;;;;;;;;;;5060369;28;20056;-64
2023/11/19 06:01:41;;;;;;;;;;;;;;;;;;5055994;28;20090;-65
2023/11/19 06:04:08;;;;;;;40.00;6.72;;;;;;;;;;5046744;28;19928;-63
2023/11/19 06:06:34;;;;;;;40.95;5.38;;;;;;;;;;5058097;28;20052;-63
2023/11/19 06:09:01;;;;;;;39.17;5.72;;;;;;;;;;5058234;28;20139;-63
2023/11/19 06:11:38;;;;;;;36.25;5.05;;;;;;;;;;5062832;28;20087;-64
2023/11/19 06:14:06;;;;;;;36.80;5.28;;;;;;;;;;5051874;28;20079;-64
2023/11/19 06:16:32;;;;;;;37.58;5.85;;;;;;;;;;5054533;28;20040;-64
2023/11/19 06:18:58;;;;;;;36.38;5.15;;;;;;;;;;5049359;28;20078;-63
2023/11/19 06:21:25;;;;;;;27.40;4.88;;;;;;;;;;5048356;28;20045;-64
2023/11/19 06:23:53;;;;;;;35.50;5.38;;;;;;;;;;5053432;28;20462;-63
2023/11/19 06:26:19;;;;;;;37.93;5.53;;;;;;;;;;5054520;28;20055;-64
2023/11/19 06:28:46;;;;;;;37.60;5.75;;;;;;;;;;5052760;28;20079;-63
2023/11/19 06:31:15;;;;;;;44.67;6.03;;;;;;;;;;5039454;28;20072;-63
2023/11/19 06:33:42;;;;;;;32.55;5.45;;;;;;;;;;5061131;28;20051;-63
2023/11/19 06:36:09;;;;;;;38.33;5.45;;;;;;;;;;5054057;28;20055;-63
2023/11/19 06:38:35;;;;;;;33.08;5.38;;;;;;;;;;5055839;28;20501;-64
2023/11/19 06:41:01;;;;;;;39.25;5.00;;;;;;;;;;5060442;28;20052;-63
2023/11/19 06:43:28;;;;;;;41.40;5.72;;;;;;;;;;5041431;28;20098;-64
2023/11/19 06:46:14;;;;;;;32.85;5.10;;;;;;;;;;5054519;28;20056;-64
2023/11/19 06:48:42;;;;;;;40.03;5.65;;;;;;;;;;5056703;28;20098;-64
2023/11/19 06:51:09;;;;;;;42.33;5.43;;;;;;;;;;5058797;28;20056;-64
2023/11/19 06:53:35;;;;;;;41.90;5.88;;;;;;;;;;5060155;28;20048;-64
2023/11/19 06:56:06;;;;;;;36.03;5.25;;;;;;;;;;5045813;28;20067;-63
2023/11/19 06:58:35;;;;;;;36.45;5.50;;;;;;;;;;5053879;28;20045;-63
2023/11/19 07:01:02;;;;;;;39.80;6.25;;;;;;;;;;5049875;28;20053;-64
2023/11/19 07:03:28;;;;;;;29.10;4.57;;;;;;;;;;5061973;28;20048;-63
2023/11/19 07:05:55;;;;;;;35.33;6.05;;;;;;;;;;5057255;28;20044;-63
2023/11/19 07:08:22;;;;;;;33.97;5.07;;;;;;;;;;5067837;28;20085;-64
2023/11/19 07:10:48;;;;;;;39.17;5.50;;;;;;;;;;5058813;28;20048;-63
2023/11/19 07:13:15;;;;;;;30.85;4.53;;;;;;;;;;5041426;28;20393;-63
2023/11/19 07:15:41;;;;;;;32.67;4.93;;;;;;;;;;5057033;28;20091;-64
2023/11/19 07:18:08;;;;;;;33.97;5.35;;;;;;;;;;5054304;28;20106;-63
2023/11/19 07:20:34;;;;;;;38.60;6.60;;;;;;;;;;5058546;28;20049;-63
2023/11/19 07:23:00;;;;;;;32.20;4.88;;;;;;;;;;5049515;28;20057;-64
2023/11/19 07:25:27;;;;;;;35.47;5.30;;;;;;;;;;5056478;28;20125;-63
2023/11/19 07:27:53;;;;;;;35.92;5.70;;;;;;;;;;5042351;28;20049;-64
2023/11/19 07:30:19;;;;;;;33.75;4.97;;;;;;;;;;5066447;28;20041;-63
2023/11/19 07:32:46;;;;;;;39.75;5.45;;;;;;;;;;5074594;28;20040;-63
2023/11/19 07:35:12;;;;;;;33.58;5.35;;;;;;;;;;5067641;28;20060;-63
2023/11/19 07:37:39;;;;;;;36.92;5.07;;;;;;;;;;5070727;28;20044;-64
2023/11/19 07:40:06;;;;;;;30.48;5.22;;;;;;;;;;5041371;28;20052;-63
2023/11/19 07:42:32;;;;;;;29.65;5.53;;;;;;;;;;5046060;28;20076;-63
2023/11/19 07:44:58;;;;;;;42.90;6.15;;;;;;;;;;5056270;28;20084;-63
2023/11/19 07:47:25;;;;;;;33.28;4.93;;;;;;;;;;5053451;28;20053;-63
2023/11/19 07:49:51;;;;;;;43.60;5.45;;;;;;;;;;5068354;28;20047;-63
2023/11/19 07:52:18;;;;;;;32.33;5.15;;;;;;;;;;5052090;28;20052;-64
2023/11/19 07:54:47;;;;;;;38.40;5.63;;;;;;;;;;5055370;28;20059;-63
2023/11/19 07:57:14;;;;;;;35.70;5.63;;;;;;;;;;5052096;28;20045;-63
2023/11/19 07:59:40;;;;;;;37.80;6.18;;;;;;;;;;5061778;28;20098;-64
2023/11/19 08:02:07;;;;;;;50.67;6.53;;;;;;;;;;5065328;28;20553;-63
2023/11/19 08:04:34;;;;;;;44.67;6.78;;;;;;;;;;5063446;28;20680;-63
2023/11/19 08:07:01;;;;;;;40.33;5.38;;;;;;;;;;5067432;28;20136;-64
2023/11/19 08:09:27;;;;;;;33.22;4.55;;;;;;;;;;5052273;28;20055;-64
2023/11/19 08:11:56;;;;;;;39.20;4.95;;;;;;;;;;5051513;28;20509;-64
2023/11/19 08:14:23;;;;;;;32.35;5.47;;;;;;;;;;5045789;28;20047;-63
2023/11/19 08:16:49;;;;;;;31.23;4.70;;;;;;;;;;5051913;28;20048;-63
2023/11/19 08:19:16;;;;;;;37.80;5.20;;;;;;;;;;5063212;28;20425;-63
2023/11/19 08:21:42;;;;;;;39.35;5.80;;;;;;;;;;5043454;28;20113;-63
2023/11/19 08:24:08;;;;;;;37.70;5.47;;;;;;;;;;5057326;28;20076;-64
2023/11/19 08:26:35;;;;;;;38.63;5.30;;;;;;;;;;5059466;28;20131;-63
2023/11/19 08:29:01;;;;;;;32.28;5.43;;;;;;;;;;5056917;28;20041;-65
2023/11/19 08:31:27;;;;;;;38.22;5.85;;;;;;;;;;5052722;28;20102;-64
2023/11/19 08:33:54;;;;;;;34.35;5.22;;;;;;;;;;5056561;28;20087;-66
2023/11/19 08:36:20;;;;;;;33.83;5.15;;;;;;;;;;5064170;28;20056;-65
2023/11/19 08:38:48;;;;;;;34.17;5.55;;;;;;;;;;5058353;28;20817;-64
2023/11/19 08:41:17;;;;;;;29.60;3.97;;;;;;;;;;5077801;28;20048;-65
2023/11/19 08:43:44;;;;;;;39.53;5.38;;;;;;;;;;5063965;28;20084;-65
2023/11/19 08:46:11;;;;;;;37.75;5.47;;;;;;;;;;5049337;28;20159;-66
2023/11/19 08:48:37;;;;;;;34.40;5.47;;;;;;;;;;5062846;28;20080;-65
2023/11/19 08:51:04;;;;;;;27.98;4.82;;;;;;;;;;5051433;28;20158;-65
2023/11/19 08:53:30;;;;;;;40.40;5.07;;;;;;;;;;5053654;28;20512;-65
2023/11/19 08:55:57;;;;;;;26.65;4.43;;;;;;;;;;5065771;28;20052;-65
2023/11/19 08:58:23;;;;;;;37.75;6.55;;;;;;;;;;5065179;28;20041;-65
2023/11/19 09:00:50;;;;;;;28.88;4.97;;;;;;;;;;5037973;28;20135;-66
2023/11/19 09:03:16;;;;;;;45.10;7.07;;;;;;;;;;5063525;28;20053;-65
2023/11/19 09:05:43;;;;;;;32.03;4.85;;;;;;;;;;5052209;28;20485;-66
2023/11/19 09:08:11;;;;;;;39.20;6.35;;;;;;;;;;5055562;28;20224;-65
2023/11/19 09:10:37;;;;;;;33.92;4.28;;;;;;;;;;5063087;28;20044;-65
2023/11/19 09:13:04;;;;;;;32.30;4.35;;;;;;;;;;5055794;28;20131;-65
2023/11/19 09:15:30;;;;;;;30.45;5.38;;;;;;;;;;5055405;28;20121;-64
2023/11/19 09:17:56;;;;;;;38.55;4.40;;;;;;;;;;5044035;28;20140;-63
2023/11/19 09:20:23;;;;;;;34.03;4.20;;;;;;;;;;5059209;28;20413;-65
2023/11/19 09:22:49;;;;;;;35.67;4.45;;;;;;;;;;5055524;28;20076;-65
2023/11/19 09:25:16;;;;;;;35.58;5.20;;;;;;;;;;5061669;28;20068;-65
2023/11/19 09:27:43;;;;;;;32.28;4.90;;;;;;;;;;5057406;28;20055;-66
2023/11/19 09:30:10;;;;;;;36.65;5.38;;;;;;;;;;5053820;28;20084;-66
2023/11/19 09:32:37;;;;;;;28.88;5.10;;;;;;;;;;5064296;28;20049;-65
2023/11/19 09:35:04;;;;;;;28.65;5.30;;;;;;;;;;5048679;28;20103;-64
2023/11/19 09:37:30;;;;;;;42.40;6.68;;;;;;;;;;5060234;28;20141;-64
2023/11/19 09:39:56;;;;;;;28.95;4.57;;;;;;;;;;5068120;28;20467;-65
2023/11/19 09:42:23;;;;;;;32.40;4.70;;;;;;;;;;5052889;28;20044;-64
2023/11/19 09:44:50;;;;;;;28.23;4.47;;;;;;;;;;5061204;28;20404;-65
2023/11/19 09:47:18;;;;;;;34.10;4.68;;;;;;;;;;5061970;28;20048;-64
2023/11/19 09:49:45;;;;;;;39.10;5.30;;;;;;;;;;5057560;28;20048;-65
2023/11/19 09:52:12;;;;;;;31.45;5.13;;;;;;;;;;5060284;28;20064;-66
2023/11/19 09:54:38;;;;;;;27.60;5.43;;;;;;;;;;5061095;28;20103;-64
2023/11/19 09:57:05;;;;;;;29.90;5.32;;;;;;;;;;5073244;28;20056;-65
2023/11/19 09:59:32;;;;;;;28.05;4.65;;;;;;;;;;5057613;28;20067;-65
2023/11/19 10:01:59;;;;;;;38.10;5.10;;;;;;;;;;5062850;28;20067;-65
2023/11/19 10:04:29;;;;;;;31.75;4.53;;;;;;;;;;5060971;28;20128;-65
2023/11/19 10:06:56;;;;;;;32.53;5.47;;;;;;;;;;5054916;28;20059;-65
2023/11/19 10:09:22;;;;;;;26.27;4.78;;;;;;;;;;5058548;28;20138;-65
2023/11/19 10:11:49;;;;;;;28.85;5.47;;;;;;;;;;5060874;28;20080;-65
2023/11/19 10:14:18;;;;;;;35.58;5.38;;;;;;;;;;5051540;28;20049;-65
2023/11/19 10:16:46;;;;;;;33.50;4.63;;;;;;;;;;5058173;28;20050;-65
2023/11/19 10:19:18;;;;;;;30.33;4.65;;;;;;;;;;5059203;28;20072;-65
2023/11/19 10:21:46;;;;;;;35.80;4.88;;;;;;;;;;5061962;28;20054;-65
2023/11/19 10:24:12;;;;;;;30.37;4.20;;;;;;;;;;5060813;28;20416;-65
2023/11/19 10:26:56;;;;;;;35.10;5.32;;;;;;;;;;5051438;28;20049;-65
2023/11/19 10:29:23;;;;;;;26.60;4.22;;;;;;;;;;5049450;28;20037;-64
2023/11/19 10:31:56;;;;;;;36.92;5.43;;;;;;;;;;5063244;28;20047;-65
2023/11/19 10:34:43;;;;;;;37.20;5.57;;;;;;;;;;5056658;28;20731;-65
2023/11/19 10:37:26;;;;;;;31.13;5.18;;;;;;;;;;5063448;28;20131;-65
2023/11/19 10:39:56;;;;;;;30.80;4.65;;;;;;;;;;5047746;28;20574;-64
2023/11/19 10:42:23;;;;;;;29.80;5.13;;;;;;;;;;5062004;28;20420;-65
2023/11/19 10:44:49;;;;;;;26.25;3.78;;;;;;;;;;5057204;28;20127;-64
2023/11/19 10:47:18;;;;;;;30.60;4.22;;;;;;;;;;5056668;28;20045;-65
2023/11/19 10:49:48;;;;;;;28.15;3.95;;;;;;;;;;5061650;28;20067;-64
2023/11/19 10:52:17;;;;;;;34.17;6.00;;;;;;;;;;5044359;28;20433;-65
2023/11/19 10:54:44;;;;;;;28.08;4.53;;;;;;;;;;5052130;28;20072;-65
2023/11/19 10:57:12;;;;;;;29.00;4.32;;;;;;;;;;5055661;28;20052;-66
2023/11/19 10:59:39;;;;;;;33.88;5.18;;;;;;;;;;5054703;28;20210;-65
2023/11/19 11:02:09;;;;;;;28.20;5.07;;;;;;;;;;5042386;28;20056;-65
2023/11/19 11:04:39;;;;;;;29.00;3.78;;;;;;;;;;5054632;28;20052;-65
2023/11/19 11:07:07;;;;;;;28.98;5.05;;;;;;;;;;5061231;28;20080;-65
2023/11/19 11:09:33;;;;;;;29.17;4.18;;;;;;;;;;5073722;28;20040;-65
2023/11/19 11:12:00;;;;;;;31.63;5.32;;;;;;;;;;5050769;28;20740;-65
2023/11/19 11:14:27;;;;;;;25.40;4.68;;;;;;;;;;5066935;28;20056;-65
2023/11/19 11:16:56;;;;;;;28.23;5.10;;;;;;;;;;5064930;28;20420;-64
2023/11/19 11:19:23;;;;;;;27.02;4.93;;;;;;;;;;5053595;28;20752;-65
2023/11/19 11:21:51;;;;;;;30.48;4.78;;;;;;;;;;5056161;28;20057;-65
2023/11/19 11:24:29;;;;;;;23.58;3.55;;;;;;;;;;5030776;28;20147;-64
2023/11/19 11:27:02;;;;;;;25.98;4.32;;;;;;;;;;5055955;28;20094;-65
2023/11/19 11:29:37;;;;;;;23.25;4.10;;;;;;;;;;5071112;28;20481;-64
2023/11/19 11:32:03;;;;;;;29.67;4.55;;;;;;;;;;5063665;28;20127;-64
2023/11/19 11:34:29;;;;;;;22.98;3.53;;;;;;;;;;5070930;28;20060;-65
2023/11/19 11:37:08;;;;;;;27.55;4.10;;;;;;;;;;5053952;28;20487;-65
2023/11/19 11:39:34;;;;;;;30.15;3.95;;;;;;;;;;5046675;28;20421;-65
2023/11/19 11:42:20;;;;;;;28.65;5.10;;;;;;;;;;5058334;28;20140;-65
2023/11/19 11:44:58;;;;;;;20.20;3.58;;;;;;;;;;5053065;28;20128;-65
2023/11/19 11:47:46;;;;;;;26.80;4.00;;;;;;;;;;5063893;28;20123;-65
2023/11/19 11:50:13;;;;;;;24.23;4.45;;;;;;;;;;5059479;28;20045;-66
2023/11/19 11:52:55;;;;;;;24.08;3.97;;;;;;;;;;5029888;28;20067;-65
2023/11/19 11:55:33;;;;;;;27.88;5.20;;;;;;;;;;5057726;28;20057;-65
2023/11/19 11:58:00;;;;;;;26.15;4.40;;;;;;;;;;5070698;28;20106;-65
2023/11/19 12:00:27;;;;;;;31.77;4.35;;;;;;;;;;5063899;28;20104;-64
2023/11/19 12:02:58;;;;;;;25.88;4.05;;;;;;;;;;5059251;28;20102;-65
2023/11/19 12:05:25;;;;;;;25.77;3.90;;;;;;;;;;5037782;28;20053;-65
2023/11/19 12:07:55;;;;;;;29.27;4.95;;;;;;;;;;5067771;28;20062;-64
2023/11/19 12:10:22;;;;;;;30.83;4.10;;;;;;;;;;5038898;28;20130;-64
2023/11/19 12:12:50;;;;;;;;;;;;;;;;;;5060975;28;20063;-64
2023/11/19 12:15:19;;;;;;;31.65;4.55;;;;;;;;;;5073318;28;19924;-64
2023/11/19 12:17:49;;;;;;;25.15;4.47;;;;;;;;;;5046037;28;20045;-64
2023/11/19 12:20:17;;;;;;;26.02;4.28;;;;;;;;;;5048177;28;20506;-65
2023/11/19 12:23:04;;;;;;;21.15;3.97;;;;;;;;;;5047783;28;20049;-64
2023/11/19 12:25:34;;;;;;;18.38;3.03;;;;;;;;;;5058329;28;20385;-64
2023/11/19 12:28:04;;;;;;;23.70;3.35;;;;;;;;;;5050464;28;20558;-64
2023/11/19 12:30:30;;;;;;;18.92;3.33;;;;;;;;;;5053236;28;20051;-64
2023/11/19 12:32:57;;;;;;;18.90;2.70;;;;;;;;;;5050211;28;20420;-64
2023/11/19 12:35:24;;;;;;;19.40;3.47;;;;;;;;;;5043928;28;20045;-64
2023/11/19 12:37:51;;;;;;;16.95;3.33;;;;;;;;;;5055444;28;20048;-64
2023/11/19 12:40:24;;;;;;;23.80;3.30;;;;;;;;;;5049272;28;20640;-64
2023/11/19 12:42:52;;;;;;;22.48;3.55;;;;;;;;;;5052472;28;20051;-63
2023/11/19 12:45:20;;;;;;;22.80;3.90;;;;;;;;;;5043193;28;20068;-65
2023/11/19 12:47:48;;;;;;;20.40;4.00;;;;;;;;;;5046491;28;20096;-64
2023/11/19 12:50:15;;;;;;;20.60;3.40;;;;;;;;;;5050817;28;20091;-64
2023/11/19 12:52:41;;;;;;;19.95;3.40;;;;;;;;;;5046816;28;20045;-65
2023/11/19 12:55:24;;;;;;;17.05;2.63;;;;;;;;;;5051578;28;20049;-64
2023/11/19 12:57:55;;;;;;;20.55;3.38;;;;;;;;;;5058453;28;20056;-64
2023/11/19 13:00:22;;;;;;;21.10;3.17;;;;;;;;;;5058934;28;20051;-65
2023/11/19 13:02:49;;;;;;;16.92;3.55;;;;;;;;;;5048080;28;20041;-64
2023/11/19 13:05:22;;;;;;;22.70;3.13;;;;;;;;;;5060656;28;20072;-64
2023/11/19 13:07:48;;;;;;;19.08;3.30;;;;;;;;;;5044080;28;20060;-64
2023/11/19 13:10:15;;;;;;;23.50;4.47;;;;;;;;;;5060978;28;20120;-64
2023/11/19 13:12:59;;;;;;;21.80;3.50;;;;;;;;;;5067421;28;20094;-64
2023/11/19 13:15:26;;;;;;;23.65;3.83;;;;;;;;;;5043179;28;20044;-66
2023/11/19 13:17:52;;;;;;;24.67;4.20;;;;;;;;;;5056345;28;20057;-65
2023/11/19 13:20:19;;;;;;;20.55;4.10;;;;;;;;;;5055793;28;20768;-65
2023/11/19 13:22:55;;;;;;;23.60;3.55;;;;;;;;;;5065772;28;20055;-65
2023/11/19 13:30:24;;;;;;;22.33;3.58;;;;;;;;;;5758629;22;20061;-64
2023/11/19 13:32:55;;;;;;;22.70;4.40;;;;;;;;;;5048320;28;20045;-65
2023/11/19 13:35:25;;;;;;;;;;;;;;;;;;5040566;28;20806;-65
2023/11/19 13:37:51;;;;;;;20.45;2.78;;;;;;;;;;5054479;28;19924;-65
2023/11/19 13:40:19;;;;;;;23.35;3.40;;;;;;;;;;5061136;28;20049;-62
2023/11/19 13:42:45;;;;;;;26.13;4.15;;;;;;;;;;5066089;28;20152;-66
2023/11/19 13:45:13;;;;;;;21.77;3.63;;;;;;;;;;5045298;28;20299;-65
2023/11/19 13:47:43;;;;;;;28.83;4.88;;;;;;;;;;5051800;28;20044;-66
2023/11/19 13:50:11;;;;;;;26.08;4.25;;;;;;;;;;5063370;28;20132;-64
2023/11/19 13:52:38;;;;;;;22.70;3.78;;;;;;;;;;5062479;28;20048;-65
2023/11/19 13:55:08;;;;;;;27.13;4.30;;;;;;;;;;5050795;28;20084;-65
2023/11/19 13:57:35;;;;;;;26.77;4.50;;;;;;;;;;5038709;28;20056;-64
2023/11/19 14:00:12;;;;;;;22.27;3.95;;;;;;;;;;5044660;28;20045;-67
2023/11/19 14:02:42;;;;;;;21.77;3.97;;;;;;;;;;5065556;28;20400;-67
2023/11/19 14:05:10;;;;;;;20.23;3.72;;;;;;;;;;5047177;28;20049;-68
2023/11/19 14:07:37;;;;;;;22.50;4.45;;;;;;;;;;5061491;28;21438;-67
2023/11/19 14:10:05;;;;;;;27.98;4.75;;;;;;;;;;5052749;28;20045;-67
2023/11/19 14:12:32;;;;;;;19.52;3.90;;;;;;;;;;5057428;28;20131;-67
2023/11/19 14:15:00;;;;;;;23.52;4.57;;;;;;;;;;5063687;28;20095;-67
2023/11/19 14:17:26;;;;;;;22.25;4.25;;;;;;;;;;5063501;28;20125;-65
2023/11/19 14:19:54;;;;;;;27.77;4.68;;;;;;;;;;5063698;28;20051;-67
2023/11/19 14:22:20;;;;;;;21.02;4.03;;;;;;;;;;5057221;28;20396;-65
2023/11/19 14:24:47;;;;;;;23.70;4.35;;;;;;;;;;5054010;28;20072;-65
2023/11/19 14:27:13;;;;;;;27.08;4.97;;;;;;;;;;5054653;28;20477;-67
2023/11/19 14:29:40;;;;;;;25.80;3.75;;;;;;;;;;5063232;28;20479;-65
2023/11/19 14:32:06;;;;;;;29.92;5.10;;;;;;;;;;5055820;28;20045;-64
2023/11/19 14:34:33;;;;;;;25.13;5.15;;;;;;;;;;5056351;28;20067;-65
2023/11/19 14:37:00;;;;;;;19.20;3.75;;;;;;;;;;5026005;28;20504;-65
2023/11/19 14:39:28;;;;;;;23.33;3.87;;;;;;;;;;5010139;28;20064;-65